Time;durP1;ratioP1;P1;durP2;ratioP2;P2;SDS_P1;SDS_P2;PMS_P1;PMS_P2;Temp;Humidity;BMP_temperature;BMP_pressure;BME280_temperature;BME280_humidity;BME280_pressure;Samples;Min_cycle;Max_cycle;Signal;HPM_P1;HPM_P2
2023/09/18 07:23:11;;;;;;;2.63;2.00;;;;;;;-145.79;100.00;76065.44;5290683;27;1928015;-71
2023/09/18 07:25:44;;;;;;;2.72;1.70;;;;;;;-145.79;100.00;76071.78;5330993;28;20028;-72
2023/09/18 07:28:19;;;;;;;2.53;1.95;;;;;;;-145.79;100.00;76059.09;5331103;28;20034;-71
2023/09/18 07:30:50;;;;;;;2.03;1.60;;;;;;;-145.79;100.00;76067.56;5329898;28;20028;-72
2023/09/18 07:33:22;;;;;;;2.70;2.10;;;;;;;-145.79;100.00;76063.31;5333467;28;20027;-72
2023/09/18 07:35:53;;;;;;;4.35;1.95;;;;;;;-145.79;99.96;76063.31;5339396;28;20475;-72
2023/09/18 07:38:25;;;;;;;4.00;1.85;;;;;;;-145.79;99.81;76056.97;5329837;28;20035;-71
2023/09/18 07:40:56;;;;;;;2.50;1.83;;;;;;;-145.79;99.55;76061.19;5333539;28;20042;-71
2023/09/18 07:43:27;;;;;;;2.28;1.63;;;;;;;-145.79;99.41;76067.56;5338458;28;20506;-73
2023/09/18 07:46:01;;;;;;;3.05;1.80;;;;;;;-145.79;98.56;76065.44;5334424;28;20114;-72
2023/09/18 07:48:32;;;;;;;6.10;1.70;;;;;;;-145.79;98.80;76061.19;5334568;28;20027;-73
2023/09/18 07:51:04;;;;;;;3.65;1.90;;;;;;;-145.79;98.39;76056.97;5333308;28;20031;-72
2023/09/18 07:53:35;;;;;;;2.38;1.90;;;;;;;-145.79;98.08;76059.09;5335488;28;20012;-72
2023/09/18 07:56:07;;;;;;;4.13;2.20;;;;;;;-145.79;98.21;76056.97;5333219;28;20490;-72
2023/09/18 07:58:38;;;;;;;5.43;2.45;;;;;;;-145.79;97.70;76048.47;5333474;28;20055;-72
2023/09/18 08:01:10;;;;;;;4.15;1.80;;;;;;;-145.79;97.59;76044.25;5331064;28;20546;-71
2023/09/18 08:03:41;;;;;;;2.10;1.90;;;;;;;-145.79;97.56;76037.88;5330148;28;20043;-72
2023/09/18 08:06:14;;;;;;;3.08;1.90;;;;;;;-145.79;97.01;76042.13;5331131;28;20035;-72
2023/09/18 08:08:46;;;;;;;3.65;1.77;;;;;;;-145.79;96.96;76050.59;5342112;28;20020;-72
2023/09/18 08:11:18;;;;;;;4.38;2.15;;;;;;;-145.79;96.84;76059.09;5334094;28;20107;-73
2023/09/18 08:13:50;;;;;;;2.45;1.67;;;;;;;-145.79;96.59;76061.19;5333255;28;20098;-71
2023/09/18 08:16:21;;;;;;;3.92;1.98;;;;;;;-145.79;96.57;76056.97;5333776;28;20111;-72
2023/09/18 08:18:52;;;;;;;2.58;1.60;;;;;;;-145.79;96.84;76054.84;5333374;28;20023;-72
2023/09/18 08:21:24;;;;;;;3.25;1.63;;;;;;;-145.79;96.73;76061.19;5339496;28;20039;-71
2023/09/18 08:23:55;;;;;;;3.00;1.90;;;;;;;-145.79;96.15;76061.19;5329931;28;20103;-71
2023/09/18 08:26:28;;;;;;;2.22;1.70;;;;;;;-145.79;96.15;76063.31;5339027;28;20046;-71
2023/09/18 08:28:59;;;;;;;3.13;2.15;;;;;;;-145.79;96.08;76056.97;5329661;28;20032;-71
2023/09/18 08:31:31;;;;;;;4.80;2.20;;;;;;;-145.79;95.65;76050.59;5330799;28;20497;-71
2023/09/18 08:34:02;;;;;;;4.00;1.80;;;;;;;-145.79;95.60;76046.38;5321831;28;20401;-72
2023/09/18 08:36:34;;;;;;;3.63;1.92;;;;;;;-145.79;94.92;76054.84;5318276;28;20028;-72
2023/09/18 08:39:08;;;;;;;3.13;2.00;;;;;;;-145.79;95.25;76059.09;5315772;28;20048;-71
2023/09/18 08:41:43;;;;;;;2.35;1.80;;;;;;;-145.79;94.77;76065.44;5319636;28;20519;-72
2023/09/18 08:44:14;;;;;;;3.10;2.10;;;;;;;-145.79;94.53;76061.19;5322404;28;20032;-72
2023/09/18 08:46:46;;;;;;;3.17;2.00;;;;;;;-145.79;93.96;76063.31;5315258;28;20030;-72
2023/09/18 08:49:18;;;;;;;3.20;1.85;;;;;;;-145.79;93.60;76059.09;5319327;28;20073;-72
2023/09/18 08:51:50;;;;;;;12.02;8.05;;;;;;;-145.79;93.26;76054.84;5318125;28;20055;-72
2023/09/18 08:54:23;;;;;;;3.47;2.10;;;;;;;-145.79;93.26;76050.59;5314439;28;20434;-72
2023/09/18 08:56:55;;;;;;;3.03;1.67;;;;;;;-145.79;93.18;76042.13;5315567;28;20031;-73
2023/09/18 08:59:27;;;;;;;2.95;2.15;;;;;;;-145.79;93.22;76042.13;5325925;28;20470;-71
2023/09/18 09:01:58;;;;;;;3.03;2.05;;;;;;;-145.79;93.17;76029.41;5317811;28;20031;-71
2023/09/18 09:04:29;;;;;;;3.92;2.42;;;;;;;-145.79;92.37;76018.81;5318753;28;20023;-72
2023/09/18 09:07:02;;;;;;;3.92;2.00;;;;;;;-145.79;92.14;76012.47;5318068;28;20018;-72
2023/09/18 09:09:34;;;;;;;6.13;2.50;;;;;;;-145.79;91.70;75999.75;5314042;28;20489;-72
2023/09/18 09:12:05;;;;;;;5.72;2.30;;;;;;;-145.79;91.63;75995.50;5314885;28;20099;-73
2023/09/18 09:14:37;;;;;;;5.85;2.20;;;;;;;-145.79;90.93;75987.03;5318576;28;20024;-72
2023/09/18 09:17:10;;;;;;;5.50;2.67;;;;;;;-145.79;90.32;75982.81;5326071;28;20051;-72
2023/09/18 09:19:42;;;;;;;6.32;2.70;;;;;;;-145.79;90.56;75984.91;5318785;28;20420;-72
2023/09/18 09:22:21;;;;;;;4.40;2.78;;;;;;;-145.79;90.26;75987.03;5317220;28;20044;-72
2023/09/18 09:24:53;;;;;;;7.88;2.80;;;;;;;-145.79;89.86;75987.03;5314607;28;20475;-72
2023/09/18 09:27:24;;;;;;;5.15;3.10;;;;;;;-145.79;90.08;75982.81;5315001;28;20032;-71
2023/09/18 09:29:59;;;;;;;3.83;2.55;;;;;;;-145.79;90.18;75978.56;5317975;28;20107;-72
2023/09/18 09:32:31;;;;;;;;;;;;;;;-145.79;89.24;75976.44;5318259;28;20051;-72
2023/09/18 09:35:06;;;;;;;6.07;2.85;;;;;;;-145.79;89.26;75987.03;5321781;28;19959;-71
2023/09/18 09:37:39;;;;;;;4.70;2.65;;;;;;;-145.79;88.87;75982.81;5314285;28;20028;-72
2023/09/18 09:40:14;;;;;;;3.60;2.85;;;;;;;-145.79;88.10;75982.81;5318452;28;20019;-71
2023/09/18 09:42:46;;;;;;;;;;;;;;;-145.79;88.28;75970.09;5316738;28;20034;-72
2023/09/18 09:45:18;;;;;;;3.65;2.65;;;;;;;-145.79;87.94;75972.22;5318741;28;19916;-71
2023/09/18 09:47:54;;;;;;;3.63;2.58;;;;;;;-145.79;88.42;75965.84;5316233;28;20023;-73
2023/09/18 09:50:25;;;;;;;3.33;2.58;;;;;;;-145.79;88.10;75957.38;5319462;28;20031;-73
2023/09/18 09:52:56;;;;;;;5.15;2.90;;;;;;;-145.79;88.26;75944.66;5317805;28;20020;-74
2023/09/18 09:55:29;;;;;;;3.92;2.70;;;;;;;-145.79;87.92;75953.13;5318052;28;20031;-73
2023/09/18 09:58:02;;;;;;;2.80;2.20;;;;;;;-145.79;87.91;75953.13;5314960;28;20118;-75
2023/09/18 10:00:47;;;;;;;4.15;2.45;;;;;;;-145.79;87.63;75953.13;5313398;28;20081;-73
2023/09/18 10:03:20;;;;;;;3.77;2.37;;;;;;;-145.79;87.60;75948.91;5316727;28;20211;-70
2023/09/18 10:05:55;;;;;;;3.05;2.67;;;;;;;-145.79;87.77;75948.91;5316730;28;20065;-72
2023/09/18 10:08:28;;;;;;;4.00;2.43;;;;;;;-145.79;86.87;75946.78;5324881;28;20027;-71
2023/09/18 10:11:07;;;;;;;4.85;2.45;;;;;;;-145.79;87.55;75936.19;5317250;28;20059;-72
2023/09/18 10:14:11;;;;;;;3.65;2.60;;;;;;;-145.79;87.16;75929.81;5312864;28;20032;-72
2023/09/18 10:16:48;;;;;;;4.93;2.35;;;;;;;-145.79;85.93;75931.94;5294008;28;20044;-71
2023/09/18 10:20:16;;;;;;;4.15;2.47;;;;;;;-145.79;86.44;75929.81;5313756;28;20036;-71
2023/09/18 10:22:54;;;;;;;3.50;2.85;;;;;;;-145.79;86.35;75931.94;5211280;28;20042;-72
2023/09/18 10:25:31;;;;;;;3.72;2.88;;;;;;;-145.79;85.40;75925.59;5323146;28;20031;-72
2023/09/18 10:28:03;;;;;;;3.70;2.42;;;;;;;-145.79;85.08;75936.19;5313080;28;20471;-72
2023/09/18 10:30:37;;;;;;;13.43;12.02;;;;;;;-145.79;85.01;75927.72;5314705;28;20036;-72
2023/09/18 10:33:09;;;;;;;7.55;6.07;;;;;;;-145.79;84.10;75929.81;5316219;28;20031;-71
2023/09/18 10:35:42;;;;;;;6.30;3.15;;;;;;;-145.79;85.11;75923.47;5314268;28;20152;-71
2023/09/18 10:38:15;;;;;;;4.38;2.83;;;;;;;-145.79;84.29;75923.47;5312688;28;20128;-72
2023/09/18 10:40:47;;;;;;;7.55;3.55;;;;;;;-145.79;84.71;75936.19;5318266;28;20032;-71
2023/09/18 10:43:19;;;;;;;6.22;2.85;;;;;;;-145.79;84.74;75940.41;5319246;28;20432;-71
2023/09/18 10:45:51;;;;;;;4.43;2.80;;;;;;;-145.79;84.86;75948.91;5322915;28;20023;-72
2023/09/18 10:48:23;;;;;;;4.97;3.35;;;;;;;-145.79;84.05;75948.91;5315740;28;20047;-73
2023/09/18 10:50:56;;;;;;;4.68;2.90;;;;;;;-145.79;84.11;75944.66;5314235;28;20100;-72
2023/09/18 10:53:27;;;;;;;4.60;2.92;;;;;;;-145.79;84.21;75938.31;5311553;28;20020;-72
2023/09/18 10:55:58;;;;;;;6.75;3.38;;;;;;;-145.79;83.54;75927.72;5313960;28;20089;-72
2023/09/18 10:58:30;;;;;;;3.80;2.80;;;;;;;-145.79;84.05;75919.22;5322642;28;20405;-71
2023/09/18 11:01:04;;;;;;;3.97;2.83;;;;;;;-145.79;83.65;75912.88;5315354;28;20063;-70
2023/09/18 11:03:37;;;;;;;4.97;2.92;;;;;;;-145.79;82.29;75902.28;5316463;28;20020;-71
2023/09/18 11:06:14;;;;;;;4.55;2.90;;;;;;;-145.79;81.19;75891.69;5314710;28;20032;-70
2023/09/18 11:08:49;;;;;;;4.32;3.05;;;;;;;-145.79;81.03;75876.84;5311460;28;20069;-70
2023/09/18 11:11:21;;;;;;;7.07;2.80;;;;;;;-145.79;80.53;75862.03;5315089;28;20085;-68
2023/09/18 11:13:55;;;;;;;6.72;3.17;;;;;;;-145.79;80.72;75842.97;5316041;28;20020;-69
2023/09/18 11:16:27;;;;;;;5.35;3.00;;;;;;;-145.79;79.67;75834.47;5320854;28;20032;-68
2023/09/18 11:18:58;;;;;;;4.50;2.83;;;;;;;-145.79;78.94;75830.25;5312064;28;20119;-68
2023/09/18 11:21:31;;;;;;;4.45;2.85;;;;;;;-145.79;78.00;75836.59;5313278;28;20044;-68
2023/09/18 11:24:04;;;;;;;7.15;3.10;;;;;;;-145.79;78.02;75836.59;5315878;28;20107;-70
2023/09/18 11:26:37;;;;;;;5.82;3.53;;;;;;;-145.79;76.72;75821.75;5313515;28;20020;-68
2023/09/18 11:29:15;;;;;;;12.82;11.73;;;;;;;-145.79;76.86;75821.75;5311305;28;20024;-68
2023/09/18 11:31:53;;;;;;;8.82;6.03;;;;;;;-145.79;76.03;75817.53;5318196;28;20493;-69
2023/09/18 11:34:34;;;;;;;6.68;3.00;;;;;;;-145.79;76.53;75821.75;5315814;28;20114;-69
2023/09/18 11:37:22;;;;;;;5.47;3.75;;;;;;;-145.79;76.48;75811.19;5311279;28;20471;-71
2023/09/18 11:39:54;;;;;;;6.95;3.08;;;;;;;-145.79;75.09;75785.75;5314660;28;20023;-71
2023/09/18 11:42:26;;;;;;;4.28;3.42;;;;;;;-145.79;74.74;75766.69;5315905;28;20090;-71
2023/09/18 11:44:59;;;;;;;5.97;3.80;;;;;;;-145.79;74.13;75739.13;5315214;28;20028;-71
2023/09/18 11:47:32;;;;;;;7.00;3.42;;;;;;;-145.79;72.48;75722.19;5316137;28;20103;-71
2023/09/18 11:50:04;;;;;;;3.75;2.67;;;;;;;-145.79;69.59;75709.47;5320094;28;20148;-71
2023/09/18 11:52:36;;;;;;;5.97;3.42;;;;;;;-145.79;70.03;75709.47;5315861;28;20068;-71
2023/09/18 11:55:08;;;;;;;3.92;2.60;;;;;;;-145.79;69.39;75701.00;5312479;28;20020;-71
2023/09/18 11:57:42;;;;;;;3.13;2.65;;;;;;;-145.79;68.23;75713.72;5310952;28;20027;-72
2023/09/18 12:00:23;;;;;;;3.00;2.55;;;;;;;-145.79;69.07;75696.75;5314915;28;20028;-72
2023/09/18 12:02:55;;;;;;;5.05;2.78;;;;;;;-145.79;67.96;75701.00;5315213;28;20031;-72
2023/09/18 12:05:26;;;;;;;6.65;3.58;;;;;;;-145.79;68.01;75703.13;5313906;28;20459;-71
2023/09/18 12:07:58;;;;;;;2.90;2.65;;;;;;;-145.79;68.28;75681.94;5324548;28;20157;-71
2023/09/18 12:10:29;;;;;;;6.40;2.67;;;;;;;-145.79;68.44;75662.84;5315345;28;20050;-71
2023/09/18 12:13:01;;;;;;;2.55;2.35;;;;;;;-145.79;67.35;75664.97;5314998;28;20220;-71
2023/09/18 12:15:33;;;;;;;4.90;2.60;;;;;;;-145.79;66.79;75660.75;5323573;28;20024;-70
2023/09/18 12:18:11;;;;;;;4.22;2.90;;;;;;;-145.79;66.52;75662.84;5314894;28;20387;-69
2023/09/18 12:20:49;;;;;;;2.38;2.05;;;;;;;-145.79;67.28;75656.50;5310917;28;20372;-70
2023/09/18 12:23:20;;;;;;;4.93;2.42;;;;;;;-145.79;66.61;75664.97;5324670;28;20390;-71
2023/09/18 12:25:59;;;;;;;4.05;2.38;;;;;;;-145.79;66.98;75664.97;5318787;28;20031;-71
2023/09/18 12:28:31;;;;;;;4.75;2.70;;;;;;;-145.79;66.29;75641.66;5318012;28;20028;-71
2023/09/18 12:31:06;;;;;;;7.05;2.65;;;;;;;-145.79;64.90;75639.56;5315183;28;20016;-70
2023/09/18 12:33:39;;;;;;;4.82;2.65;;;;;;;-145.79;64.74;75622.59;5323286;28;20020;-70
2023/09/18 12:36:10;;;;;;;4.32;2.45;;;;;;;-145.79;63.94;75626.84;5327331;28;20020;-71
2023/09/18 12:38:42;;;;;;;3.25;2.75;;;;;;;-145.79;64.96;75656.50;5318191;28;20019;-71
2023/09/18 12:41:13;;;;;;;2.30;2.05;;;;;;;-145.79;65.69;75631.06;5325145;28;20027;-70
2023/09/18 12:43:45;;;;;;;2.72;2.15;;;;;;;-145.79;65.46;75635.31;5326190;28;20043;-69
2023/09/18 12:46:19;;;;;;;7.38;6.65;;;;;;;-145.79;65.73;75654.38;5319695;28;20054;-69
2023/09/18 12:48:51;;;;;;;4.05;2.38;;;;;;;-145.79;65.87;75660.75;5317157;28;20462;-68
2023/09/18 12:51:32;;;;;;;3.75;2.75;;;;;;;-145.79;66.88;75660.75;5326345;28;22465;-69
2023/09/18 12:54:06;;;;;;;3.40;2.60;;;;;;;-145.79;67.33;75639.56;5326140;28;20028;-71
2023/09/18 12:56:41;;;;;;;2.80;2.30;;;;;;;-145.79;66.29;75622.59;5325595;28;20455;-73
2023/09/18 12:59:13;;;;;;;3.33;2.47;;;;;;;-145.79;65.37;75592.94;5327156;28;20535;-73
2023/09/18 13:01:48;;;;;;;4.53;2.00;;;;;;;-145.79;63.80;75569.63;5317585;28;20027;-74
2023/09/18 13:04:20;;;;;;;4.68;2.50;;;;;;;-145.79;62.53;75569.63;5323996;28;20077;-71
2023/09/18 13:07:12;;;;;;;3.10;2.40;;;;;;;-145.79;62.40;75537.84;5318076;28;20015;-72
2023/09/18 13:10:01;;;;;;;4.32;2.45;;;;;;;-145.79;61.96;75533.63;5314390;28;20106;-72
2023/09/18 13:12:45;;;;;;;3.33;2.45;;;;;;;-145.79;62.77;75520.91;5314062;28;20032;-71
2023/09/18 13:15:28;;;;;;;7.78;4.85;;;;;;;-145.79;63.51;75529.38;5322437;28;20019;-71
2023/09/18 13:18:08;;;;;;;3.25;2.15;;;;;;;-145.79;62.68;75506.06;5314137;28;20387;-71
2023/09/18 13:20:42;;;;;;;2.75;2.08;;;;;;;-145.79;62.54;75476.41;5314089;28;20442;-72
2023/09/18 13:23:14;;;;;;;3.72;2.53;;;;;;;-145.79;60.94;75472.19;5313704;28;20555;-71
2023/09/18 13:25:47;;;;;;;4.28;2.10;;;;;;;-145.79;60.57;75461.59;5318384;28;20126;-70
2023/09/18 13:28:20;;;;;;;4.18;2.15;;;;;;;-145.79;60.01;75472.19;5298862;28;20031;-71
2023/09/18 13:30:52;;;;;;;3.50;2.10;;;;;;;-145.79;60.04;75470.06;5318346;28;20467;-71
2023/09/18 13:33:25;;;;;;;3.30;1.98;;;;;;;-145.79;60.74;75451.00;5317818;28;20039;-70
2023/09/18 13:35:56;;;;;;;4.43;2.55;;;;;;;-145.79;60.77;75444.63;5313071;28;20032;-70
2023/09/18 13:38:28;;;;;;;4.20;2.20;;;;;;;-145.79;60.69;75423.44;5314057;28;20470;-67
2023/09/18 13:40:59;;;;;;;3.28;2.53;;;;;;;-145.79;59.87;75410.75;5317680;28;20042;-67
2023/09/18 13:43:34;;;;;;;6.97;6.35;;;;;;;-145.79;58.92;75419.22;5316801;28;20032;-67
2023/09/18 13:46:05;;;;;;;3.80;2.38;;;;;;;-145.79;59.22;75419.22;5313879;28;20498;-72
2023/09/18 13:48:38;;;;;;;2.83;2.25;;;;;;;-145.79;58.45;75419.22;5321969;28;20036;-71
2023/09/18 13:51:10;;;;;;;4.03;2.65;;;;;;;-145.79;58.97;75429.81;5316835;28;20028;-73
2023/09/18 13:53:42;;;;;;;2.40;2.10;;;;;;;-145.79;57.94;75434.03;5317832;28;20462;-71
2023/09/18 13:56:13;;;;;;;3.75;2.33;;;;;;;-145.79;58.19;75427.69;5313115;28;20096;-71
2023/09/18 13:58:45;;;;;;;2.55;2.10;;;;;;;-145.79;58.33;75431.94;5314388;28;20031;-73
2023/09/18 14:01:16;;;;;;;2.17;1.98;;;;;;;-145.79;58.28;75434.03;5317487;28;20042;-72
2023/09/18 14:03:47;;;;;;;4.38;2.30;;;;;;;-145.79;59.16;75444.63;5316604;28;20026;-73
2023/09/18 14:06:19;;;;;;;2.58;2.13;;;;;;;-145.79;58.55;75436.16;5324754;28;20039;-72
2023/09/18 14:08:50;;;;;;;1.80;1.70;;;;;;;-145.79;58.52;75429.81;5317487;28;20475;-73
2023/09/18 14:11:21;;;;;;;6.25;2.22;;;;;;;-145.79;57.58;75429.81;5313787;28;20043;-72
2023/09/18 14:13:53;;;;;;;3.17;2.13;;;;;;;-145.79;57.36;75431.94;5313234;28;20020;-71
2023/09/18 14:16:25;;;;;;;3.45;2.10;;;;;;;-145.79;57.84;75410.75;5315750;28;20118;-73
2023/09/18 14:18:56;;;;;;;2.38;1.70;;;;;;;-145.79;56.32;75417.09;5316083;28;20027;-71
2023/09/18 14:21:30;;;;;;;3.97;1.98;;;;;;;-145.79;56.87;75414.97;5316480;28;20383;-74
2023/09/18 14:24:01;;;;;;;3.30;1.75;;;;;;;-145.79;54.71;75436.16;5318769;28;20165;-70
2023/09/18 14:26:34;;;;;;;4.88;1.77;;;;;;;-145.79;54.15;75448.88;5314566;28;20051;-70
2023/09/18 14:29:10;;;;;;;3.13;1.80;;;;;;;-145.79;54.41;75427.69;5316864;28;20386;-70
2023/09/18 14:31:42;;;;;;;3.25;2.30;;;;;;;-145.79;54.50;75419.22;5312723;28;20114;-71
2023/09/18 14:34:13;;;;;;;5.68;2.20;;;;;;;-145.79;53.64;75417.09;5318739;28;20019;-71
2023/09/18 14:36:45;;;;;;;4.53;2.10;;;;;;;-145.79;51.89;75421.34;5322872;28;20023;-72
2023/09/18 14:39:16;;;;;;;3.50;1.75;;;;;;;-145.79;52.13;75400.16;5318581;28;20031;-71
2023/09/18 14:41:48;;;;;;;1.92;1.70;;;;;;;-145.79;52.18;75398.03;5316632;28;20434;-71
2023/09/18 14:44:19;;;;;;;3.22;2.08;;;;;;;-145.79;52.07;75406.50;5317146;28;20545;-70
2023/09/18 14:46:50;;;;;;;3.45;1.95;;;;;;;-145.79;51.57;75425.56;5313880;28;20028;-70
2023/09/18 14:49:22;;;;;;;4.32;1.98;;;;;;;-145.79;51.79;75436.16;5312514;28;20383;-70
2023/09/18 14:51:54;;;;;;;5.30;1.90;;;;;;;-145.79;52.01;75446.75;5322798;28;20027;-72
2023/09/18 14:54:25;;;;;;;3.50;1.88;;;;;;;-145.79;52.50;75448.88;5315545;28;20026;-70
2023/09/18 14:56:57;;;;;;;4.88;2.13;;;;;;;-145.79;52.79;75461.59;5322707;28;20066;-69
2023/09/18 14:59:29;;;;;;;2.95;1.98;;;;;;;-145.79;52.78;75463.69;5316725;28;20035;-70
2023/09/18 15:02:00;;;;;;;4.93;2.00;;;;;;;-145.79;52.84;75472.19;5314864;28;20088;-70
2023/09/18 15:04:32;;;;;;;2.85;2.35;;;;;;;-145.79;53.05;75478.53;5312030;28;20031;-72
2023/09/18 15:07:03;;;;;;;4.05;2.60;;;;;;;-145.79;53.44;75478.53;5312372;28;20054;-72
2023/09/18 15:09:35;;;;;;;2.17;1.92;;;;;;;-145.79;52.62;75493.38;5316134;28;20027;-72
2023/09/18 15:12:07;;;;;;;2.85;1.85;;;;;;;-145.79;52.70;75506.06;5316124;28;20488;-72
2023/09/18 15:14:39;;;;;;;2.40;1.92;;;;;;;-145.79;52.65;75516.66;5323615;28;20118;-70
2023/09/18 15:17:11;;;;;;;3.45;2.13;;;;;;;-145.79;52.61;75539.97;5315626;28;20106;-72
2023/09/18 15:19:43;;;;;;;3.28;1.95;;;;;;;-145.79;53.02;75573.88;5312099;28;20024;-71
2023/09/18 15:22:14;;;;;;;2.95;1.30;;;;;;;-145.79;60.12;75709.47;5311137;28;20040;-69
2023/09/18 15:24:45;;;;;;;3.45;1.30;;;;;;;-145.79;66.12;75834.47;5316401;28;20445;-70
2023/09/18 15:27:17;;;;;;;1.45;1.13;;;;;;;-145.79;72.05;75838.72;5315999;28;20092;-71
2023/09/18 15:29:49;;;;;;;2.72;1.27;;;;;;;-145.79;78.49;75887.44;5317533;28;20414;-71
2023/09/18 15:32:21;;;;;;;6.53;3.25;;;;;;;-145.79;79.37;75902.28;5316490;28;20027;-72
2023/09/18 15:34:54;;;;;;;2.53;1.40;;;;;;;-145.79;78.64;75957.38;5315350;28;20031;-72
2023/09/18 15:37:25;;;;;;;2.33;1.38;;;;;;;-145.79;80.21;75987.03;5316181;28;20398;-72
2023/09/18 15:39:57;;;;;;;3.30;2.03;;;;;;;-145.79;84.48;76006.09;5297575;28;20027;-73
2023/09/18 15:42:28;;;;;;;2.97;1.85;;;;;;;-145.79;85.44;76046.38;5315108;28;20028;-72
2023/09/18 15:44:59;;;;;;;3.75;1.90;;;;;;;-145.79;85.10;76029.41;5316736;28;20436;-72
2023/09/18 15:47:31;;;;;;;4.88;2.08;;;;;;;-145.79;86.50;76029.41;5323966;28;20123;-73
2023/09/18 15:50:04;;;;;;;3.35;1.88;;;;;;;-145.79;87.77;76042.13;5319192;28;20045;-74
2023/09/18 15:52:37;;;;;;;2.90;1.90;;;;;;;-145.79;87.78;76063.31;5319942;28;20471;-74
2023/09/18 15:55:11;;;;;;;3.70;2.40;;;;;;;-145.79;88.94;76084.50;5316533;28;20103;-72
2023/09/18 15:57:43;;;;;;;3.22;1.85;;;;;;;-145.79;90.29;76090.88;5315291;28;20016;-71
2023/09/18 16:00:17;;;;;;;2.78;1.67;;;;;;;-145.79;91.26;76076.03;5319722;28;20484;-71
2023/09/18 16:02:50;;;;;;;6.03;4.53;;;;;;;-145.79;91.00;76067.56;5318956;28;20027;-71
2023/09/18 16:05:27;;;;;;;3.80;1.67;;;;;;;-145.79;90.10;76071.78;5328321;28;20386;-74
2023/09/18 16:07:59;;;;;;;3.03;1.55;;;;;;;-145.79;89.82;76069.69;5319570;28;20039;-74
2023/09/18 16:10:32;;;;;;;2.55;2.17;;;;;;;-145.79;90.13;76063.31;5315047;28;20081;-73
2023/09/18 16:13:03;;;;;;;2.67;1.88;;;;;;;-145.79;89.20;76048.47;5315670;28;20107;-80
2023/09/18 16:15:35;;;;;;;3.42;1.52;;;;;;;-145.79;87.60;76056.97;5316141;28;20107;-72
2023/09/18 16:18:06;;;;;;;1.65;1.55;;;;;;;-145.79;87.91;76050.59;5314939;28;20028;-67
2023/09/18 16:20:37;;;;;;;3.55;1.80;;;;;;;-145.79;88.16;76046.38;5319889;28;20027;-67
2023/09/18 16:23:09;;;;;;;2.65;1.50;;;;;;;-145.79;89.49;76029.41;5319539;28;20127;-73
2023/09/18 16:25:40;;;;;;;1.90;1.50;;;;;;;-145.79;88.94;76029.41;5319311;28;20028;-72
2023/09/18 16:28:12;;;;;;;3.08;2.17;;;;;;;-145.79;89.21;76016.69;5319571;28;20035;-73
2023/09/18 16:30:45;;;;;;;1.95;1.52;;;;;;;-145.79;88.73;76016.69;5319617;28;20035;-72
2023/09/18 16:33:16;;;;;;;2.95;1.80;;;;;;;-145.79;89.21;76001.88;5318698;28;20053;-72
2023/09/18 16:35:49;;;;;;;1.55;1.40;;;;;;;-145.79;87.63;75995.50;5315675;28;20020;-71
2023/09/18 16:38:20;;;;;;;3.47;2.90;;;;;;;-145.79;88.47;76001.88;5321995;28;20027;-72
2023/09/18 16:40:52;;;;;;;3.00;2.00;;;;;;;-145.79;89.68;75993.41;5319056;28;20489;-70
2023/09/18 16:43:24;;;;;;;4.50;1.95;;;;;;;-145.79;87.77;76008.22;5318822;28;20063;-71
2023/09/18 16:45:55;;;;;;;2.38;1.95;;;;;;;-145.79;87.00;76016.69;5315244;28;20416;-71
2023/09/18 16:48:27;;;;;;;3.40;1.98;;;;;;;-145.79;88.00;76020.94;5315262;28;20383;-71
2023/09/18 16:50:59;;;;;;;3.22;2.15;;;;;;;-145.79;88.53;76023.06;5315099;28;20034;-71
2023/09/18 16:53:31;;;;;;;2.10;1.80;;;;;;;-145.79;88.54;76033.66;5313709;28;20054;-71
